Cordova, Tennessee
Current Conditions -  °F | °C
As of 6:50 AM on Thursday 30 Oct 2014 (Local Time) from KOLV Reporting Station
Clear Clear  
Wind Chill: 41°   Ceiling: Unl
Heat Index: 41°   Visibility: 10mi
Dew Point: 41°   Wind: 0mph
Humidity: 100%   Direction: NA
Pressure: 30.16"   Gusts: NA
Location:  35.16°N, 89.78°W
Report Text: KOLV 301150Z 00000KT 10SM SKC 05/05 A3016
Loading
Personal Weather Stations






























Interactive Weather Map New forecast layout! Learn more

10-Day Weather Forecast

Advertisements
Track Severe Weather on mobile